Marcelo Neves

Scout - Santos
25 Dec 2027
Saturday
Process

Personality

Adaptability (3) Ambition (17) Controversy (9) Loyalty (4) Pressure (4) Professionalism (7) Sportsmanship (15) Temperament (3)

Profile

Coaching Style Democratic
License National A
Determination 7
Man Management 13
Motivating 11
Discipline 5
Job Satisfaction
100%
Fatigue
0%
Role Scout
Wage 68.4K p/w
Contract 14.03.2028

Performance

Behaviour Good
Training Effectiveness
46%
Player Development
55%
Injury Prevention
65%
Tactical Implementation
35%

Recent Events

Contract negotiation started now
Attended a recruitment meeting now
Contract negotiation started now
Contract negotiation started now
Contract negotiation started 7d ago
Contract negotiation started 7d ago
Observed a match 7d ago
Contract negotiation started 7d ago

Currently Monitoring

197
Player Club Status Ability Confidence Watched Last Observed Latest Vote
André Wolverhampton Active 151 / 152 40% 4 02.12.2027 -
Negueba Mirassol Lost 131 / 126 55% 1 02.12.2027 -
Bruno Gomes Internacional Active 135 / 117 40% 1 02.12.2027 -
Gastón Benedetti Estudiantes Active 136 / 113 40% 1 27.11.2027 -
Federico Navarro Rosario Central Active 135 / 115 40% 1 27.11.2027 -
Naves Palmeiras Active 136 / 129 40% 1 26.11.2027 -
Juan Carlos Portillo River Plate Active 122 / 116 40% 1 26.11.2027 -
Alexandro Bernabei Internacional Active 132 / 148 40% 5 25.11.2027 -
Felipe Andrade Houston Dynamo Active 112 / 98 40% 1 25.11.2027 -
Gonzalo Abrego Godoy Cruz Active 114 / 135 40% 1 24.11.2027 -
Zé Vitor Nacional Active 134 / 134 40% 1 24.11.2027 -
Elías López Aldosivi Active 114 / 113 40% 1 23.11.2027 -
Alejo Tabares All Boys Active 118 / 108 40% 1 23.11.2027 -
Valentín Moreno Tigre Active 124 / 121 40% 2 18.11.2027 -
Aarón Quiros Vélez Active 140 / 137 40% 1 14.11.2027 -
Tomás Porra Barracas Central Active 127 / 132 40% 1 14.11.2027 -
Juan Ignacio Nardoni Grêmio Active 140 / 128 40% 2 12.11.2027 -
Rodrigo Herrera Newell's Old Boys Active 129 / 128 40% 1 12.11.2027 -
Marcos Antonio Sport Recife Active 140 / 149 40% 2 11.11.2027 -
Breno Bidon Corinthians Active 133 / 137 40% 1 04.11.2027 -
Alexis Steimbach Gimnasia La Plata Active 119 / 118 40% 1 04.11.2027 -
Igor Jesus Los Angeles Football Club Active 113 / 133 40% 1 03.11.2027 -
Jhosefer ABC Active 104 / 114 55% 1 05.07.2027 -
Léo Scienza Southampton Active 138 / 143 40% 2 30.05.2027 -
Boubacar Kamara Aston Villa Active 158 / 169 40% 2 29.05.2027 -
Kevin Fulham Active 155 / 146 40% 4 27.05.2027 -
Christian Krasnodar Active 123 / 135 40% 4 27.05.2027 -
Chemsdine Talbi Sunderland Active 135 / 154 40% 3 27.05.2027 -
Enzo Barrenechea Burnley Active 142 / 159 40% 2 27.05.2027 -
Gustavo Mantuan Zenit Active 123 / 143 40% 5 26.05.2027 -
Murillo Nottingham Forest Active 154 / 148 40% 1 26.05.2027 -
Luís Henrique Inter Active 137 / 136 40% 5 25.05.2027 -
Gabriel Strefezza Palermo Active 136 / 126 40% 1 24.05.2027 -
Ethan Ampadu Leeds United Active 139 / 156 40% 1 24.05.2027 -
Max Bird Birmingham Active 129 / 140 40% 1 24.05.2027 -
Ismaïla Sarr Crystal Palace Active 145 / 149 40% 1 21.05.2027 -
Jeon Jin-Woo Sheffield Wednesday Active 134 / 126 40% 3 20.05.2027 -
Jacob Ramsey Newcastle United Active 141 / 156 40% 2 20.05.2027 -
Marquinhos Spartak Moscow Active 130 / 139 40% 1 20.05.2027 -
Ronald Swansea City Active 134 / 120 40% 3 18.05.2027 -
Liam Delap Nottingham Forest Active 139 / 155 40% 5 15.05.2027 -
Welington Southampton Active 132 / 127 40% 1 15.05.2027 -
Demarai Gray Birmingham Active 135 / 132 40% 2 14.05.2027 -
Dango Ouattara Brentford Active 153 / 136 40% 1 14.05.2027 -
Loum Tchaouna Coventry City Active 139 / 135 40% 2 12.05.2027 -
Igor Burnley Active 150 / 149 40% 6 11.05.2027 -
Tino Livramento Newcastle United Active 163 / 163 40% 1 10.05.2027 -
Carlos Augusto Inter Active 150 / 160 40% 1 10.05.2027 -
Dodo Fiorentina Active 146 / 151 40% 4 09.05.2027 -
Carlos Vicente Udinese Active 152 / 152 40% 1 08.05.2027 -
Manor Solomon West Ham United Active 141 / 146 40% 1 07.05.2027 -
Julio Enciso Ipswich Town Active 145 / 153 40% 2 06.05.2027 -
Malcom Al Jazira Active 143 / 153 40% 6 02.05.2027 -
Edoardo Bove Watford Active 133 / 123 40% 1 02.05.2027 -
Tyrell Malacia Derby County Active 134 / 132 40% 4 28.04.2027 -
Amine Adli Bournemouth Active 135 / 155 40% 1 26.04.2027 -
Savinho Tottenham Active 159 / 167 40% 2 24.04.2027 -
Nicolò Barella Inter Active 174 / 172 40% 1 24.04.2027 -
Khvicha Kvaratskhelia Inter Active 171 / 168 40% 1 23.04.2027 -
Max Johnston Derby County Active 137 / 120 40% 1 22.04.2027 -
Helinho Toluca Active 130 / 111 40% 2 20.04.2027 -
David Neres Napoli Active 155 / 151 40% 2 17.04.2027 -
Óscar Mingueza Crystal Palace Active 156 / 143 40% 1 15.04.2027 -
Brenden Aaronson Leeds United Active 140 / 148 40% 1 13.04.2027 -
Galeno Al-Ahli Active 149 / 146 40% 11 12.04.2027 -
João Gomes Aston Villa Active 137 / 138 40% 1 12.04.2027 -
Jordan Beyer Burnley Active 130 / 143 40% 1 12.04.2027 -
Tetê Grêmio Active 142 / 121 40% 5 09.04.2027 -
Tariq Lamptey Queens Park Rangers Active 131 / 139 40% 1 08.04.2027 -
Sorba Thomas Stoke City Active 138 / 141 40% 1 07.04.2027 -
Gérson Cruzeiro Active 149 / 127 40% 5 03.04.2027 -
Isma Ruiz Córdoba Active 126 / 119 40% 1 02.04.2027 -
Lewis Ferguson Bologna Active 135 / 143 40% 1 02.04.2027 -
João Carvalho Estoril Praia Active 136 / 124 40% 5 31.03.2027 -
Rodrigo Pinheiro Famalicao Active 132 / 120 40% 4 31.03.2027 -
Sergi Altimira Sporting CP Active 147 / 138 40% 2 30.03.2027 -
Heorhii Sudakov Benfica Active 155 / 152 40% 1 30.03.2027 -
Iván Fresneda Sporting CP Active 137 / 152 40% 4 29.03.2027 -
William Gomes Porto Active 147 / 153 40% 7 28.03.2027 -
Enzo Loiodice KAA Gent Active 135 / 135 40% 1 27.03.2027 -
Giovani Lo Celso AC Milan Active 141 / 141 40% 3 26.03.2027 -
Tom Fellows Southampton Active 124 / 122 40% 1 25.03.2027 -
Rubens Dinamo Moscow Active 114 / 142 40% 4 24.03.2027 -
Borja Sainz Porto Active 153 / 143 40% 4 23.03.2027 -
Alberto Costa Porto Active 138 / 137 40% 5 22.03.2027 -
Yanis Begraoui Estoril Praia Active 145 / 128 40% 3 21.03.2027 -
Pedrinho Shakhtar Active 137 / 133 40% 2 21.03.2027 -
Kerem Aktürkoğlu Fenerbahce Active 137 / 125 40% 2 21.03.2027 -
Marquinhos APOEL Active 147 / 121 40% 2 19.03.2027 -
Othmane Maamma Watford Active 133 / 121 40% 2 17.03.2027 -
Pablo Solari Spartak Moscow Active 119 / 144 40% 1 17.03.2027 -
Geny Sporting CP Active 133 / 148 40% 3 15.03.2027 -
Francisco Moura Penafiel Active 143 / 132 40% 2 09.03.2027 -
Pepê Porto Active 139 / 155 40% 4 08.03.2027 -
Gianluca Prestianni Benfica Active 145 / 143 40% 3 08.03.2027 -
Pau Víctor Estrela da Amadora Active 135 / 129 40% 5 06.03.2027 -
Ousmane Diakité West Bromwich Albion Active 132 / 119 40% 1 27.02.2027 -
Wendel Zenit Active 140 / 162 40% 3 25.02.2027 -
Gabriel Sara Galatasaray Active 150 / 134 40% 3 23.02.2027 -
Dinis Pinto Moreirense Active 129 / 129 40% 1 22.02.2027 -
Mathías Villasanti Grêmio Active 124 / 127 40% 2 18.02.2027 -
Arthur Internacional Active 147 / 135 40% 1 18.02.2027 -
Daniel Muñoz Nottingham Forest Active 146 / 155 40% 1 18.02.2027 -
Lucas Paquetá Flamengo Active 127 / 140 40% 3 17.02.2027 -
Matheus Pereira Cruzeiro Active 134 / 154 40% 1 17.02.2027 -
Pablo Rosario Porto Active 137 / 127 40% 3 16.02.2027 -
Samuel Lino Flamengo Active 134 / 128 40% 2 03.02.2027 -
Randal Kolo Muani Juventus Active 149 / 154 40% 1 01.02.2027 -
James Maddison Tottenham Active 166 / 155 40% 1 01.02.2027 -
Alan Varela Porto Active 151 / 136 40% 2 30.01.2027 -
Jacob Greaves Ipswich Town Active 135 / 133 40% 1 28.01.2027 -
Samuel Dahl Benfica Active 145 / 138 40% 3 27.01.2027 -
Sidney Lima Braga Active 127 / 134 40% 2 26.01.2027 -
Brooke Norton-Cuffy Hull City Active 139 / 142 40% 1 25.01.2027 -
Imrân Louza Watford Active 129 / 137 40% 1 25.01.2027 -
Roger François Udinese Active 136 / 149 40% 1 24.01.2027 -
Mario Dorgeles Braga Active 135 / 142 40% 2 21.01.2027 -
Henry Mosquera Bragantino Active 132 / 137 55% 2 18.01.2027 -
Santi García Gil Vicente Active 125 / 138 40% 1 18.01.2027 -
Tomás Araújo Benfica Active 145 / 137 40% 2 16.01.2027 -
Danilo Botafogo Active 148 / 140 40% 1 13.01.2027 -
Jordan Holsgrove Estoril Praia Active 139 / 135 40% 1 13.01.2027 -
Matheus Fernandes Bragantino Active 135 / 118 40% 1 11.01.2027 -
Pedro Bicalho Qarabag Active 117 / 144 40% 1 10.01.2027 -
Gabriel Pereira FC Copenhagen Active 113 / 142 40% 1 07.01.2027 -
Diego Costa Krasnodar Active 125 / 155 40% 3 02.01.2027 -
Braian Aguirre Internacional Active 130 / 131 40% 1 01.12.2026 -
Santiago Ramos Mingo Bahia Active 146 / 133 40% 1 01.12.2026 -
Vitinho Botafogo Active 124 / 139 40% 1 30.11.2026 -
Leon Bailey Olympiacos Active 160 / 161 40% 1 27.11.2026 -
Roberto Fernández Braga Active 144 / 131 40% 6 25.11.2026 -
Amine Gouiri Olympique de Marseille Lost 152 / 137 40% 1 23.11.2026 -
Senny Mayulu Paris Saint-Germain Active 151 / 146 40% 1 23.11.2026 -
Sindre Walle Egeli Nottingham Forest Active 134 / 122 40% 2 22.11.2026 -
Esequiel Barco Spartak Moscow Active 140 / 124 40% 1 22.11.2026 -
Taty Castellanos West Ham United Active 156 / 137 40% 3 20.11.2026 -
Agustín Canobbio Fluminense Active 145 / 135 40% 1 19.11.2026 -
Steven Bergwijn Al-Ittihad Active 161 / 166 40% 4 17.11.2026 -
Ansu Fati Monaco Active 126 / 125 40% 1 17.11.2026 -
Ayrton Costa Boca Juniors Active 121 / 138 40% 1 17.11.2026 -
Noah Okafor Leeds United Active 143 / 148 40% 4 14.11.2026 -
Brennan Johnson Everton Active 149 / 153 40% 1 14.11.2026 -
Nikola Vlašić Torino Active 135 / 143 40% 1 12.11.2026 -
Joaquín Piquerez Palmeiras Active 141 / 123 40% 1 12.11.2026 -
Pedro Henrique Shakhtar Active 117 / 152 40% 1 10.11.2026 -
Luciano Juba Bahia Active 135 / 143 40% 1 10.11.2026 -
Caio Alexandre Bahia Active 139 / 132 40% 1 05.11.2026 -
Dwight McNeil Crystal Palace Active 146 / 133 40% 1 03.11.2026 -
Esteban Lepaul Stade Rennais Active 136 / 124 40% 1 02.11.2026 -
Ricardo Pepi Napoli Active 146 / 145 40% 1 01.11.2026 -
Patati AZ Active 133 / 125 40% 1 29.10.2026 -
Roger Ibañez Benfica Active 140 / 153 40% 1 28.10.2026 -
Martín Ojeda Orlando City Active 127 / 117 40% 1 28.10.2026 -
Donyell Malen AS Roma Active 141 / 161 40% 1 22.10.2026 -
Xavier Biscayzacú Sporting CP Active 126 / 121 40% 1 22.10.2026 -
Igor Paixão Olympique de Marseille Active 152 / 136 40% 5 21.10.2026 -
Petar Musa Braga Active 132 / 143 40% 1 21.10.2026 -
Dominic Calvert-Lewin FC Nantes Active 141 / 139 40% 2 19.10.2026 -
Jonas Wind Braga Active 143 / 137 40% 1 19.10.2026 -
Mauro Júnior PSV Active 151 / 148 40% 1 19.10.2026 -
Julian Palacios Feyenoord Active 150 / 148 40% 3 17.10.2026 -
Sergio Barreto Pachuca Active 115 / 151 40% 1 16.10.2026 -
Jakub Kiwior Porto Active 157 / 155 40% 1 16.10.2026 -
Dominic Solanke Tottenham Active 152 / 145 40% 1 12.10.2026 -
Sidiki Chérif Coventry City Active 116 / 142 40% 1 10.10.2026 -
Giacomo Raspadori Atalanta Active 139 / 134 40% 1 09.10.2026 -
Taiwo Awoniyi Coventry City Active 131 / 130 40% 1 09.10.2026 -
Víctor Gómez Braga Active 148 / 133 40% 1 08.10.2026 -
Thulani Billiat Utrecht Active 127 / 128 40% 1 02.10.2026 -
Nicolás de la Cruz Flamengo Active 127 / 138 40% 1 01.10.2026 -
Jean-Philippe Mateta Crystal Palace Active 149 / 151 40% 2 30.09.2026 -
Agustín Ruberto River Plate Active 108 / 140 40% 1 30.09.2026 -
Luis Suárez PSV Active 162 / 157 40% 2 28.09.2026 -
Alexey Batrakov Galatasaray Active 132 / 146 40% 3 26.09.2026 -
Kasper Dolberg Ajax Active 148 / 145 40% 1 24.09.2026 -
Thiago Almada Fiorentina Active 141 / 141 40% 1 23.09.2026 -
Stefanos Tzimas Brighton Active 127 / 136 40% 1 22.09.2026 -
Youssef En-Nesyri Al-Ittihad Active 135 / 134 40% 2 21.09.2026 -
Victor Froholdt Porto Active 145 / 157 40% 3 18.09.2026 -
Gonzalo Fulham Active 151 / 145 40% 2 17.09.2026 -
Mathias De Amorim Famalicao Active 127 / 129 40% 1 16.09.2026 -
Dodi Lukébakio Benfica Active 132 / 131 40% 1 13.09.2026 -
Emanuel Emegha Chelsea Active 135 / 137 40% 1 10.09.2026 -
Renan Lodi Atlético Mineiro Active 141 / 121 40% 2 08.09.2026 -
Caio Henrique Ajax Active 127 / 129 40% 1 04.09.2026 -
Wesley AS Roma Active 137 / 145 40% 1 31.08.2026 -
Igor Jesus Nottingham Forest Active 132 / 128 40% 1 28.08.2026 -
Brian Brobbey Sunderland Active 131 / 142 40% 1 19.08.2026 -
Breel Embolo Atlanta United FC Active 123 / 152 40% 1 15.08.2026 -
Hwang In-Beom Porto Active 148 / 144 40% 2 13.08.2026 -
Evander FC Cincinnati Active 125 / 128 40% 2 13.08.2026 -
Eddie Nketiah Crystal Palace Active 135 / 141 40% 1 12.08.2026 -
Jonathan Dubasin Osasuna Active 131 / 135 40% 1 10.08.2026 -
Cucho Hernández Betis Active 148 / 153 40% 1 07.08.2026 -
Vitor Carvalho Braga Active 135 / 127 40% 1 05.08.2026 -
João Simões Sporting CP Active 121 / 142 40% 1 04.08.2026 -
Maximilian Beier Borussia Dortmund Active 152 / 142 40% 1 02.08.2026 -